Time;durP1;ratioP1;P1;durP2;ratioP2;P2;SDS_P1;SDS_P2;PMS_P1;PMS_P2;Temp;Humidity;BMP_temperature;BMP_pressure;BME280_temperature;BME280_humidity;BME280_pressure;Samples;Min_cycle;Max_cycle;Signal;HPM_P1;HPM_P2
2023/11/04 00:01:41;;;;;;;;;;;;;;;3.63;100.00;94401.59;5084270;28;19975;-76
2023/11/04 00:04:07;;;;;;;;;;;;;;;3.66;100.00;94392.59;5084362;28;19963;-75
2023/11/04 00:06:33;;;;;;;;;;;;;;;3.65;100.00;94390.97;5084319;28;19966;-76
2023/11/04 00:08:59;;;;;;;;;;;;;;;3.69;100.00;94401.69;5084367;28;20094;-78
2023/11/04 00:11:26;;;;;;;;;;;;;;;3.75;100.00;94408.59;5084099;28;19941;-70
2023/11/04 00:13:53;;;;;;;;;;;;;;;3.78;100.00;94405.53;5083745;28;19951;-70
2023/11/04 00:16:19;;;;;;;;;;;;;;;3.81;100.00;94408.47;5083971;28;19965;-70
2023/11/04 00:18:44;;;;;;;;;;;;;;;3.83;100.00;94403.84;5083856;28;20111;-70
2023/11/04 00:21:10;;;;;;;;;;;;;;;3.82;100.00;94396.28;5083840;28;19960;-71
2023/11/04 00:23:36;;;;;;;;;;;;;;;3.81;100.00;94394.72;5083883;28;19957;-70
2023/11/04 00:26:02;;;;;;;;;;;;;;;3.81;100.00;94392.13;5083531;28;19991;-76
2023/11/04 00:28:28;;;;;;;;;;;;;;;3.80;100.00;94390.53;5083968;28;19966;-71
2023/11/04 00:30:57;;;;;;;;;;;;;;;3.77;100.00;94389.19;5084020;28;19960;-72
2023/11/04 00:33:44;;;;;;;;;;;;;;;3.77;100.00;94380.63;5083943;28;19954;-72
2023/11/04 00:36:30;;;;;;;;;;;;;;;3.76;100.00;94387.63;5082292;28;19968;-72
2023/11/04 00:39:17;;;;;;;;;;;;;;;3.72;100.00;94385.72;5082607;28;19958;-72
2023/11/04 00:42:02;;;;;;;;;;;;;;;3.65;100.00;94386.63;5082520;28;19961;-72
2023/11/04 00:44:48;;;;;;;;;;;;;;;3.59;100.00;94392.69;5082873;28;19965;-69
2023/11/04 00:47:34;;;;;;;;;;;;;;;3.56;100.00;94392.34;5069267;28;19965;-72
2023/11/04 00:50:20;;;;;;;;;;;;;;;3.53;100.00;94391.00;5082459;28;20261;-72
2023/11/04 00:53:06;;;;;;;;;;;;;;;3.51;100.00;94384.44;5085312;28;19972;-72
2023/11/04 00:55:51;;;;;;;;;;;;;;;3.47;100.00;94384.13;5086072;28;19959;-73
2023/11/04 00:58:37;;;;;;;;;;;;;;;3.49;100.00;94383.91;5085715;28;19952;-72
2023/11/04 01:01:23;;;;;;;;;;;;;;;3.52;100.00;94381.63;5085694;28;19968;-72
2023/11/04 01:04:08;;;;;;;;;;;;;;;3.57;100.00;94386.94;5085591;28;19956;-69
2023/11/04 01:06:54;;;;;;;;;;;;;;;3.61;100.00;94379.50;5085600;28;19980;-82
2023/11/04 01:09:40;;;;;;;;;;;;;;;3.63;100.00;94378.28;5085788;28;20251;-82
2023/11/04 01:12:26;;;;;;;;;;;;;;;3.64;100.00;94373.88;5085393;28;19968;-82
2023/11/04 01:15:12;;;;;;;;;;;;;;;3.66;100.00;94377.81;5086224;28;20283;-83
2023/11/04 01:17:57;;;;;;;;;;;;;;;3.69;100.00;94375.78;5086093;28;19959;-82
2023/11/04 01:20:43;;;;;;;;;;;;;;;3.69;100.00;94381.75;5085940;28;20270;-74
2023/11/04 01:23:29;;;;;;;;;;;;;;;3.68;100.00;94382.78;5086246;28;20118;-72
2023/11/04 01:26:15;;;;;;;;;;;;;;;3.66;100.00;94383.00;5085472;28;19973;-70
2023/11/04 01:29:01;;;;;;;;;;;;;;;3.65;100.00;94376.25;5085367;28;19975;-69
2023/11/04 01:31:48;;;;;;;;;;;;;;;3.69;100.00;94384.34;5071812;28;20115;-69
2023/11/04 01:34:33;;;;;;;;;;;;;;;3.71;100.00;94384.13;5071292;28;19955;-70
2023/11/04 01:37:19;;;;;;;;;;;;;;;3.72;100.00;94383.91;5085232;28;19962;-70
2023/11/04 01:40:10;;;;;;;;;;;;;;;3.72;100.00;94385.72;5085062;28;19960;-72
2023/11/04 01:42:55;;;;;;;;;;;;;;;3.70;100.00;94385.16;5084942;28;20153;-83
2023/11/04 01:45:41;;;;;;;;;;;;;;;3.70;100.00;94385.16;5085385;28;19966;-82
2023/11/04 01:48:27;;;;;;;;;;;;;;;3.70;100.00;94385.94;5070936;28;20263;-83
2023/11/04 01:51:14;;;;;;;;;;;;;;;3.70;100.00;94372.97;5085511;28;19970;-83
2023/11/04 01:54:01;;;;;;;;;;;;;;;3.71;100.00;94373.75;5085512;28;20281;-83
2023/11/04 01:56:47;;;;;;;;;;;;;;;3.68;100.00;94364.63;5084959;28;19958;-83
2023/11/04 01:59:33;;;;;;;;;;;;;;;3.68;100.00;94367.22;5085644;28;19975;-72
2023/11/04 02:02:19;;;;;;;;;;;;;;;3.65;100.00;94360.69;5084581;28;19965;-76
2023/11/04 02:05:05;;;;;;;;;;;;;;;3.63;100.00;94362.72;5085660;28;19968;-75
2023/11/04 02:07:51;;;;;;;;;;;;;;;3.64;100.00;94355.72;5084720;28;19965;-76
2023/11/04 02:10:37;;;;;;;;;;;;;;;3.64;100.00;94348.75;5084514;28;19963;-76
2023/11/04 02:13:22;;;;;;;;;;;;;;;3.64;100.00;94355.72;5084315;28;19963;-76
2023/11/04 02:16:08;;;;;;;;;;;;;;;3.63;100.00;94348.97;5084438;28;19957;-70
2023/11/04 02:18:55;;;;;;;;;;;;;;;3.64;100.00;94332.41;5084289;28;19959;-72
2023/11/04 02:21:40;;;;;;;;;;;;;;;3.63;100.00;94341.19;5084177;28;19958;-72
2023/11/04 02:24:26;;;;;;;;;;;;;;;3.60;100.00;94345.03;5084172;28;19961;-72
2023/11/04 02:27:12;;;;;;;;;;;;;;;3.58;100.00;94341.09;5084026;28;19964;-71
2023/11/04 02:29:58;;;;;;;;;;;;;;;3.55;100.00;94339.75;5084499;28;19966;-72
2023/11/04 02:32:43;;;;;;;;;;;;;;;3.55;100.00;94344.91;5084093;28;19965;-73
2023/11/04 02:35:29;;;;;;;;;;;;;;;3.55;100.00;94344.91;5083804;28;19965;-75
2023/11/04 02:38:15;;;;;;;;;;;;;;;3.59;100.00;94340.06;5083977;28;19958;-72
2023/11/04 02:41:01;;;;;;;;;;;;;;;3.61;100.00;94341.44;5084227;28;19958;-72
2023/11/04 02:43:46;;;;;;;;;;;;;;;3.65;100.00;94336.56;5083866;28;19963;-72
2023/11/04 02:46:32;;;;;;;;;;;;;;;3.68;100.00;94330.16;5084068;28;19986;-73
2023/11/04 02:49:18;;;;;;;;;;;;;;;3.69;100.00;94322.13;5084600;28;19969;-72
2023/11/04 02:52:04;;;;;;;;;;;;;;;3.69;100.00;94327.31;5084193;28;19967;-72
2023/11/04 02:54:49;;;;;;;;;;;;;;;3.69;100.00;94334.31;5084246;28;19971;-79
2023/11/04 02:57:35;;;;;;;;;;;;;;;3.71;100.00;94337.47;5083563;28;19960;-74
2023/11/04 03:00:21;;;;;;;;;;;;;;;3.70;100.00;94326.31;5083467;28;19964;-74
2023/11/04 03:03:07;;;;;;;;;;;;;;;3.70;100.00;94331.50;5083382;28;19961;-74
2023/11/04 03:05:53;;;;;;;;;;;;;;;3.71;100.00;94329.69;5083362;28;20018;-73
2023/11/04 03:08:39;;;;;;;;;;;;;;;3.71;100.00;94332.28;5083199;28;20271;-74
2023/11/04 03:11:24;;;;;;;;;;;;;;;3.69;100.00;94321.34;5084268;28;20108;-70
2023/11/04 03:14:10;;;;;;;;;;;;;;;3.70;100.00;94330.72;5083474;28;19961;-77
2023/11/04 03:16:59;;;;;;;;;;;;;;;3.68;100.00;94328.34;5082542;28;19957;-82
2023/11/04 03:19:45;;;;;;;;;;;;;;;3.69;100.00;94324.72;5083332;28;19974;-82
2023/11/04 03:22:31;;;;;;;;;;;;;;;3.70;100.00;94323.72;5083075;28;20192;-82
2023/11/04 03:25:18;;;;;;;;;;;;;;;3.71;100.00;94314.94;5084035;28;19964;-82
2023/11/04 03:28:04;;;;;;;;;;;;;;;3.71;100.00;94314.13;5083116;28;19962;-82
2023/11/04 03:30:50;;;;;;;;;;;;;;;3.68;100.00;94317.97;5083700;28;20219;-70
2023/11/04 03:33:36;;;;;;;;;;;;;;;3.69;100.00;94318.75;5083399;28;19964;-69
2023/11/04 03:36:22;;;;;;;;;;;;;;;3.69;100.00;94316.94;5083806;28;19965;-70
2023/11/04 03:39:09;;;;;;;;;;;;;;;3.70;100.00;94315.16;5083009;28;19974;-69
2023/11/04 03:41:54;;;;;;;;;;;;;;;3.70;100.00;94310.00;5083040;28;19965;-69
2023/11/04 03:44:40;;;;;;;;;;;;;;;3.69;100.00;94308.41;5083080;28;19962;-69
2023/11/04 03:47:26;;;;;;;;;;;;;;;3.69;100.00;94303.22;5083932;28;19966;-69
2023/11/04 03:50:12;;;;;;;;;;;;;;;3.68;100.00;94299.84;5083783;28;20146;-76
2023/11/04 03:52:58;;;;;;;;;;;;;;;3.65;100.00;94298.50;5069845;28;19964;-69
2023/11/04 03:55:43;;;;;;;;;;;;;;;3.67;100.00;94303.44;5082878;28;19971;-69
2023/11/04 03:58:29;;;;;;;;;;;;;;;3.68;100.00;94294.66;5083220;28;19956;-70
2023/11/04 04:01:15;;;;;;;;;;;;;;;3.70;100.00;94290.03;5082708;28;19983;-69
2023/11/04 04:04:01;;;;;;;;;;;;;;;3.70;100.00;94278.88;5083388;28;20157;-69
2023/11/04 04:06:47;;;;;;;;;;;;;;;3.69;100.00;94274.69;5083209;28;20171;-72
2023/11/04 04:09:33;;;;;;;;;;;;;;;3.69;100.00;94275.47;5083299;28;19963;-69
2023/11/04 04:12:18;;;;;;;;;;;;;;;3.66;100.00;94281.13;5068758;28;19952;-69
2023/11/04 04:15:04;;;;;;;;;;;;;;;3.66;100.00;94276.72;5082500;28;19963;-69
2023/11/04 04:17:50;;;;;;;;;;;;;;;3.62;100.00;94272.25;5082704;28;19964;-69
2023/11/04 04:20:36;;;;;;;;;;;;;;;3.61;100.00;94271.47;5083112;28;20153;-69
2023/11/04 04:23:22;;;;;;;;;;;;;;;3.57;100.00;94272.94;5082875;28;19983;-70
2023/11/04 04:26:07;;;;;;;;;;;;;;;3.57;100.00;94267.75;5082483;28;19968;-75
2023/11/04 04:28:53;;;;;;;;;;;;;;;3.57;100.00;94265.16;5086281;28;19955;-78
2023/11/04 04:31:39;;;;;;;;;;;;;;;3.59;100.00;94263.13;5086866;28;20242;-78
2023/11/04 04:34:25;;;;;;;;;;;;;;;3.62;100.00;94267.84;5086699;28;20136;-79
2023/11/04 04:37:10;;;;;;;;;;;;;;;3.65;100.00;94259.63;5087185;28;19964;-78
2023/11/04 04:39:56;;;;;;;;;;;;;;;3.68;100.00;94249.81;5086143;28;19958;-81
2023/11/04 04:42:42;;;;;;;;;;;;;;;3.66;100.00;94256.00;5086714;28;19970;-69
2023/11/04 04:45:28;;;;;;;;;;;;;;;3.63;100.00;94247.88;5086671;28;19958;-72
2023/11/04 04:48:14;;;;;;;;;;;;;;;3.64;100.00;94249.47;5085961;28;19949;-69
2023/11/04 04:50:59;;;;;;;;;;;;;;;3.65;100.00;94241.47;5086779;28;20124;-70
2023/11/04 04:53:45;;;;;;;;;;;;;;;3.68;100.00;94239.44;5085936;28;20132;-70
2023/11/04 04:56:31;;;;;;;;;;;;;;;3.85;100.00;94240.28;5086040;28;19962;-70
2023/11/04 04:59:16;;;;;;;;;;;;;;;3.92;100.00;94234.97;5085955;28;19958;-70
2023/11/04 05:02:02;;;;;;;;;;;;;;;3.92;100.00;94230.56;5086527;28;20256;-74
2023/11/04 05:04:48;;;;;;;;;;;;;;;3.90;100.00;94235.19;5086404;28;19981;-71
2023/11/04 05:07:34;;;;;;;;;;;;;;;3.93;100.00;94233.97;5086220;28;19977;-72
2023/11/04 05:10:19;;;;;;;;;;;;;;;3.92;100.00;94225.38;5086152;28;20045;-72
2023/11/04 05:13:05;;;;;;;;;;;;;;;3.92;100.00;94222.78;5086469;28;20240;-72
2023/11/04 05:15:51;;;;;;;;;;;;;;;3.93;100.00;94219.19;5085510;28;19965;-73
2023/11/04 05:18:37;;;;;;;;;;;;;;;3.94;100.00;94210.38;5086153;28;19968;-73
2023/11/04 05:21:23;;;;;;;;;;;;;;;3.96;100.00;94217.94;5085599;28;19968;-78
2023/11/04 05:24:09;;;;;;;;;;;;;;;3.96;100.00;94207.56;5085526;28;19966;-78
2023/11/04 05:26:54;;;;;;;;;;;;;;;3.98;100.00;94208.13;5085296;28;19966;-78
2023/11/04 05:29:40;;;;;;;;;;;;;;;4.01;100.00;94210.25;5085719;28;19956;-78
2023/11/04 05:32:26;;;;;;;;;;;;;;;4.01;100.00;94205.88;5086286;28;19960;-78
2023/11/04 05:35:12;;;;;;;;;;;;;;;4.02;100.00;94207.44;5085637;28;19975;-78
2023/11/04 05:37:57;;;;;;;;;;;;;;;4.03;100.00;94197.84;5084555;28;19958;-69
2023/11/04 05:40:43;;;;;;;;;;;;;;;4.04;100.00;94202.00;5084971;28;19970;-75
2023/11/04 05:43:29;;;;;;;;;;;;;;;4.03;100.00;94193.47;5071766;28;19960;-70
2023/11/04 05:46:15;;;;;;;;;;;;;;;4.02;100.00;94191.88;5085354;28;19962;-70
2023/11/04 05:49:00;;;;;;;;;;;;;;;4.04;100.00;94196.81;5084812;28;19942;-70
2023/11/04 05:51:46;;;;;;;;;;;;;;;4.06;100.00;94192.19;5084840;28;19964;-70
2023/11/04 05:54:32;;;;;;;;;;;;;;;4.05;100.00;94194.00;5085527;28;20139;-69
2023/11/04 05:57:18;;;;;;;;;;;;;;;4.06;100.00;94187.78;5085324;28;19973;-73
2023/11/04 06:00:08;;;;;;;;;;;;;;;4.09;100.00;94185.75;5085179;28;20144;-74
2023/11/04 06:02:53;;;;;;;;;;;;;;;4.09;100.00;94178.75;5085537;28;19958;-74
2023/11/04 06:05:39;;;;;;;;;;;;;;;4.07;100.00;94162.63;5085266;28;19956;-75
2023/11/04 06:08:25;;;;;;;;;;;;;;;4.07;100.00;94163.44;5084712;28;19980;-75
2023/11/04 06:11:11;;;;;;;;;;;;;;;4.09;100.00;94154.63;5084422;28;19955;-74
2023/11/04 06:13:57;;;;;;;;;;;;;;;4.12;100.00;94159.38;5084745;28;19966;-74
2023/11/04 06:16:43;;;;;;;;;;;;;;;4.16;100.00;94152.66;5084391;28;19962;-68
2023/11/04 06:19:29;;;;;;;;;;;;;;;4.19;100.00;94145.22;5084508;28;20131;-74
2023/11/04 06:22:14;;;;;;;;;;;;;;;4.23;100.00;94143.72;5084236;28;19968;-74
2023/11/04 06:25:00;;;;;;;;;;;;;;;4.24;100.00;94141.91;5085944;28;19953;-75
2023/11/04 06:27:46;;;;;;;;;;;;;;;4.25;100.00;94141.69;5084946;28;20001;-74
2023/11/04 06:30:32;;;;;;;;;;;;;;;4.29;100.00;94143.81;5084630;28;19966;-74
2023/11/04 06:33:17;;;;;;;;;;;;;;;4.29;100.00;94144.59;5084077;28;20248;-70
2023/11/04 06:36:03;;;;;;;;;;;;;;;4.33;100.00;94142.34;5084143;28;19960;-69
2023/11/04 06:38:49;;;;;;;;;;;;;;;4.36;100.00;94140.03;5084808;28;19962;-69
2023/11/04 06:41:35;;;;;;;;;;;;;;;4.39;100.00;94128.38;5084614;28;19961;-69
2023/11/04 06:44:21;;;;;;;;;;;;;;;4.39;100.00;94118.00;5084423;28;19969;-69
2023/11/04 06:47:06;;;;;;;;;;;;;;;4.42;100.00;94127.94;5084230;28;19959;-68
2023/11/04 06:49:52;;;;;;;;;;;;;;;4.44;100.00;94125.88;5084373;28;19944;-69
2023/11/04 06:52:32;;;;;;;;;;;;;;;4.45;100.00;94117.06;5085107;28;19962;-70
2023/11/04 06:54:59;;;;;;;;;;;;;;;4.43;100.00;94122.53;5085054;28;20262;-69
2023/11/04 06:57:25;;;;;;;;;;;;;;;4.46;100.00;94119.44;5084849;28;19958;-69
2023/11/04 06:59:51;;;;;;;;;;;;;;;4.46;100.00;94113.47;5084801;28;20059;-70
2023/11/04 07:02:18;;;;;;;;;;;;;;;4.51;100.00;94104.97;5084995;28;19963;-69
2023/11/04 07:04:44;;;;;;;;;;;;;;;4.73;100.00;94107.63;5085088;28;19964;-70
2023/11/04 07:07:10;;;;;;;;;;;;;;;5.01;100.00;94101.50;5084855;28;19970;-70
2023/11/04 07:09:36;;;;;;;;;;;;;;;5.27;100.00;94102.59;5084510;28;20153;-70
2023/11/04 07:12:02;;;;;;;;;;;;;;;5.53;100.00;94089.91;5084997;28;19964;-80
2023/11/04 07:14:31;;;;;;;;;;;;;;;5.68;100.00;94090.06;5084884;28;19954;-73
2023/11/04 07:16:59;;;;;;;;;;;;;;;5.81;100.00;94083.66;5084650;28;19956;-72
2023/11/04 07:19:26;;;;;;;;;;;;;;;5.94;100.00;94083.25;5084866;28;19970;-72
2023/11/04 07:21:52;;;;;;;;;;;;;;;6.06;100.00;94075.34;5084475;28;19964;-72
2023/11/04 07:24:18;;;;;;;;;;;;;;;6.06;100.00;94075.34;5084492;28;19952;-71
2023/11/04 07:26:45;;;;;;;;;;;;;;;6.00;100.00;94068.53;5083247;28;19975;-72
2023/11/04 07:29:11;;;;;;;;;;;;;;;5.91;100.00;94068.16;5084588;28;19961;-73
2023/11/04 07:31:37;;;;;;;;;;;;;;;5.90;100.00;94077.00;5083557;28;19964;-78
2023/11/04 07:34:03;;;;;;;;;;;;;;;5.92;100.00;94071.53;5083376;28;20307;-72
2023/11/04 07:36:29;;;;;;;;;;;;;;;5.97;100.00;94061.22;5084471;28;20306;-72
2023/11/04 07:38:55;;;;;;;;;;;;;;;6.06;100.00;94055.31;5084541;28;20196;-71
2023/11/04 07:41:21;;;;;;;;;;;;;;;6.18;100.00;94054.38;5084529;28;19962;-72
2023/11/04 07:43:48;;;;;;;;;;;;;;;6.24;100.00;94048.16;5084010;28;20125;-74
2023/11/04 07:46:14;;;;;;;;;;;;;;;6.20;100.00;94041.91;5084667;28;20147;-72
2023/11/04 07:48:39;;;;;;;;;;;;;;;6.14;100.00;94050.69;5084439;28;19965;-72
2023/11/04 07:51:05;;;;;;;;;;;;;;;6.02;100.00;94038.63;5084488;28;19996;-72
2023/11/04 07:53:31;;;;;;;;;;;;;;;6.00;100.00;94038.09;5084601;28;19955;-72
2023/11/04 07:55:57;;;;;;;;;;;;;;;6.10;100.00;94040.75;5084112;28;19956;-72
2023/11/04 07:58:24;;;;;;;;;;;;;;;6.26;100.00;94041.69;5082764;28;19962;-72
2023/11/04 08:00:49;;;;;;;;;;;;;;;6.43;100.00;94041.53;5084422;28;19984;-72
2023/11/04 08:03:15;;;;;;;;;;;;;;;6.58;100.00;94045.25;5088065;28;20200;-73
2023/11/04 08:05:41;;;;;;;;;;;;;;;6.65;100.00;94049.19;5088592;28;19999;-73
2023/11/04 08:08:10;;;;;;;;;;;;;;;6.69;100.00;94031.25;5088478;28;19964;-72
2023/11/04 08:10:37;;;;;;;;;;;;;;;6.69;100.00;94023.44;5088368;28;19965;-70
2023/11/04 08:13:03;;;;;;;;;;;;;;;6.68;100.00;94014.84;5087824;28;20232;-70
2023/11/04 08:15:30;;;;;;;;;;;;;;;6.66;100.00;94018.75;5088208;28;19962;-70
2023/11/04 08:17:57;;;;;;;;;;;;;;;6.65;100.00;94015.34;5088468;28;19977;-70
2023/11/04 08:20:23;;;;;;;;;;;;;;;6.67;100.00;94009.88;5088443;28;19961;-70
2023/11/04 08:22:49;;;;;;;;;;;;;;;6.74;100.00;94001.84;5087974;28;19965;-70
2023/11/04 08:25:15;;;;;;;;;;;;;;;6.75;100.00;93999.00;5087847;28;19961;-76
2023/11/04 08:27:40;;;;;;;;;;;;;;;6.68;100.00;93991.41;5087928;28;19971;-71
2023/11/04 08:30:07;;;;;;;;;;;;;;;6.67;100.00;93995.03;5086890;28;19964;-70
2023/11/04 08:32:33;;;;;;;;;;;;;;;6.67;100.00;93989.84;5087904;28;19964;-70
2023/11/04 08:35:00;;;;;;;;;;;;;;;6.66;100.00;93984.91;5087747;28;20007;-69
2023/11/04 08:37:26;;;;;;;;;;;;;;;6.69;100.00;93987.75;5087864;28;19954;-70
2023/11/04 08:39:55;;;;;;;;;;;;;;;6.74;100.00;93987.03;5086318;28;19958;-70
2023/11/04 08:42:21;;;;;;;;;;;;;;;6.76;100.00;93986.75;5087245;28;20133;-78
2023/11/04 08:44:47;;;;;;;;;;;;;;;6.79;100.00;93976.63;5087222;28;19962;-70
2023/11/04 08:47:13;;;;;;;;;;;;;;;6.88;100.00;93982.13;5087307;28;19985;-69
2023/11/04 08:49:39;;;;;;;;;;;;;;;7.00;100.00;93968.88;5087186;28;19962;-70
2023/11/04 08:52:05;;;;;;;;;;;;;;;7.14;100.00;93961.34;5087717;28;19957;-71
2023/11/04 08:54:30;;;;;;;;;;;;;;;7.27;100.00;93955.66;5087012;28;20217;-72
2023/11/04 08:56:57;;;;;;;;;;;;;;;7.35;100.00;93947.34;5087418;28;19965;-70
2023/11/04 08:59:22;;;;;;;;;;;;;;;7.57;100.00;93941.09;5087297;28;19963;-72
2023/11/04 09:01:51;;;;;;;;;;;;;;;7.61;100.00;93934.31;5087292;28;19958;-76
2023/11/04 09:04:17;;;;;;;;;;;;;;;7.67;100.00;93933.28;5087257;28;19959;-71
2023/11/04 09:06:42;;;;;;;;;;;;;;;7.72;100.00;93935.88;5085787;28;19994;-71
2023/11/04 09:09:09;;;;;;;;;;;;;;;7.83;100.00;93916.56;5087065;28;19963;-71
2023/11/04 09:11:35;;;;;;;;;;;;;;;7.96;100.00;93923.06;5086940;28;19950;-72
2023/11/04 09:14:04;;;;;;;;;;;;;;;8.07;100.00;93908.19;5087047;28;19961;-72
2023/11/04 09:16:33;;;;;;;;;;;;;;;8.14;100.00;93908.69;5086950;28;20038;-72
2023/11/04 09:18:59;;;;;;;;;;;;;;;8.14;100.00;93906.06;5086574;28;19963;-72
2023/11/04 09:21:25;;;;;;;;;;;;;;;8.21;100.00;93903.97;5086930;28;20122;-75
2023/11/04 09:23:51;;;;;;;;;;;;;;;8.24;100.00;93866.88;5086471;28;19956;-70
2023/11/04 09:26:18;;;;;;;;;;;;;;;8.28;100.00;93885.41;5086774;28;19957;-69
2023/11/04 09:28:44;;;;;;;;;;;;;;;8.23;100.00;93860.13;5086282;28;19962;-69
2023/11/04 09:31:09;;;;;;;;;;;;;;;8.35;100.00;93880.69;5086559;28;19962;-69
2023/11/04 09:33:35;;;;;;;;;;;;;;;8.47;100.00;93868.13;5086159;28;20251;-69
2023/11/04 09:36:02;;;;;;;;;;;;;;;8.52;100.00;93865.53;5086510;28;20043;-69
2023/11/04 09:38:28;;;;;;;;;;;;;;;8.52;100.00;93859.50;5086496;28;19953;-72
2023/11/04 09:40:54;;;;;;;;;;;;;;;8.44;100.00;93841.78;5086499;28;19952;-73
2023/11/04 09:43:20;;;;;;;;;;;;;;;8.33;100.00;93859.28;5086086;28;20145;-73
2023/11/04 09:45:45;;;;;;;;;;;;;;;8.28;100.00;93861.94;5085220;28;19962;-73
2023/11/04 09:48:11;;;;;;;;;;;;;;;8.32;100.00;93861.13;5085944;28;19966;-73
2023/11/04 09:50:37;;;;;;;;;;;;;;;8.37;100.00;93852.47;5086001;28;20066;-73
2023/11/04 09:53:11;;;;;;;;;;;;;;;8.37;100.00;93851.72;5086180;28;19961;-73
2023/11/04 09:55:37;;;;;;;;;;;;;;;8.41;100.00;93873.66;5086310;28;19955;-72
2023/11/04 09:58:04;;;;;;;;;;;;;;;8.44;100.00;93862.66;5086016;28;19965;-76
2023/11/04 10:00:32;;;;;;;;;;;;;;;8.46;100.00;93861.38;5086387;28;19952;-76
2023/11/04 10:02:58;;;;;;;;;;;;;;;8.44;100.00;93841.78;5085711;28;19968;-76
2023/11/04 10:05:25;;;;;;;;;;;;;;;8.42;100.00;93834.22;5086137;28;19965;-76
2023/11/04 10:07:51;;;;;;;;;;;;;;;8.40;100.00;93838.91;5084358;28;19966;-77
2023/11/04 10:10:17;;;;;;;;;;;;;;;8.39;100.00;93831.34;5085893;28;19996;-76
2023/11/04 10:12:43;;;;;;;;;;;;;;;8.33;100.00;93814.91;5086073;28;19987;-77
2023/11/04 10:15:08;;;;;;;;;;;;;;;8.28;100.00;93815.72;5084494;28;19977;-69
2023/11/04 10:17:35;;;;;;;;;;;;;;;8.27;100.00;93816.78;5085584;28;19963;-73
2023/11/04 10:20:09;;;;;;;;;;;;;;;8.26;100.00;93811.81;5084813;28;19966;-75
2023/11/04 10:22:35;;;;;;;;;;;;;;;8.26;100.00;93798.75;5085668;28;19960;-73
2023/11/04 10:25:02;;;;;;;;;;;;;;;8.23;100.00;93787.03;5085010;28;19963;-74
2023/11/04 10:27:28;;;;;;;;;;;;;;;8.17;100.00;93756.78;5085570;28;19976;-73
2023/11/04 10:29:54;;;;;;;;;;;;;;;8.13;100.00;93756.53;5085575;28;19954;-73
2023/11/04 10:32:20;;;;;;;;;;;;;;;8.09;100.00;93752.88;5085531;28;19986;-75
2023/11/04 10:34:46;;;;;;;;;;;;;;;8.01;100.00;93748.22;5085761;28;19970;-73
2023/11/04 10:37:18;;;;;;;;;;;;;;;7.99;100.00;93742.50;5085312;28;19979;-71
2023/11/04 10:39:46;;;;;;;;;;;;;;;7.95;100.00;93738.06;5084971;28;20142;-72
2023/11/04 10:42:13;;;;;;;;;;;;;;;7.90;100.00;93738.88;5085003;28;19963;-72
2023/11/04 10:44:41;;;;;;;;;;;;;;;7.84;100.00;93737.34;5084695;28;19966;-72
2023/11/04 10:47:20;;;;;;;;;;;;;;;7.80;100.00;93741.53;5085082;28;20145;-71
2023/11/04 10:49:50;;;;;;;;;;;;;;;7.73;100.00;93742.59;5084939;28;19955;-71
2023/11/04 10:52:18;;;;;;;;;;;;;;;7.69;100.00;93749.38;5083740;28;19955;-78
2023/11/04 10:55:07;;;;;;;;;;;;;;;7.69;100.00;93741.56;5083753;28;20143;-73
2023/11/04 10:57:35;;;;;;;;;;;;;;;7.77;100.00;93749.88;5074185;28;19963;-73
2023/11/04 11:00:13;;;;;;;;;;;;;;;7.82;100.00;93755.09;5085011;28;19954;-74
2023/11/04 11:02:43;;;;;;;;;;;;;;;7.87;100.00;93755.06;5084595;28;19965;-73
2023/11/04 11:05:13;;;;;;;;;;;;;;;7.86;100.00;93743.84;5083344;28;19958;-73
2023/11/04 11:07:43;;;;;;;;;;;;;;;7.80;100.00;93731.88;5083464;28;19976;-73
2023/11/04 11:10:10;;;;;;;;;;;;;;;7.81;100.00;93736.06;5084857;28;19953;-72
2023/11/04 11:12:45;;;;;;;;;;;;;;;7.82;100.00;93727.16;5083458;28;19964;-73
2023/11/04 11:15:11;;;;;;;;;;;;;;;7.89;100.00;93727.63;5084674;28;19955;-73
2023/11/04 11:17:37;;;;;;;;;;;;;;;7.93;100.00;93723.44;5084195;28;19945;-73
2023/11/04 11:20:03;;;;;;;;;;;;;;;7.99;100.00;93703.34;5084216;28;19951;-73
2023/11/04 11:22:30;;;;;;;;;;;;;;;8.07;100.00;93710.63;5084078;28;19951;-73
2023/11/04 11:24:57;;;;;;;;;;;;;;;8.11;100.00;93682.16;5084282;28;19964;-73
2023/11/04 11:27:24;;;;;;;;;;;;;;;8.17;100.00;93683.69;5084166;28;19961;-73
2023/11/04 11:29:50;;;;;;;;;;;;;;;8.22;100.00;93680.25;5084261;28;20237;-72
2023/11/04 11:32:20;;;;;;;;;;;;;;;8.25;100.00;93680.50;5084602;28;19957;-72
2023/11/04 11:34:49;;;;;;;;;;;;;;;8.26;100.00;93671.63;5084186;28;19961;-73
2023/11/04 11:37:22;;;;;;;;;;;;;;;8.27;100.00;93654.91;5083486;28;19962;-73
2023/11/04 11:39:49;;;;;;;;;;;;;;;8.26;100.00;93619.41;5084450;28;20235;-72
2023/11/04 11:42:15;;;;;;;;;;;;;;;8.22;100.00;93615.78;5084599;28;19955;-74
2023/11/04 11:44:41;;;;;;;;;;;;;;;8.17;100.00;93620.25;5083454;28;20136;-73
2023/11/04 11:47:08;;;;;;;;;;;;;;;8.17;100.00;93617.63;5042506;28;20151;-76
2023/11/04 11:49:34;;;;;;;;;;;;;;;8.15;100.00;93602.28;5042374;28;20148;-73
2023/11/04 11:52:01;;;;;;;;;;;;;;;8.14;100.00;93611.13;5042329;28;20149;-73
2023/11/04 11:54:27;;;;;;;;;;;;;;;8.09;100.00;93609.34;5041860;28;19949;-73
2023/11/04 11:56:53;;;;;;;;;;;;;;;8.06;100.00;93593.44;5041939;28;19969;-73
2023/11/04 11:59:19;;;;;;;;;;;;;;;8.05;100.00;93612.78;5042268;28;19957;-73
2023/11/04 12:01:45;;;;;;;;;;;;;;;8.00;100.00;93597.94;5042245;28;19960;-73
2023/11/04 12:04:11;;;;;;;;;;;;;;;7.97;100.00;93595.84;5041900;28;19960;-73
2023/11/04 12:06:37;;;;;;;;;;;;;;;7.96;100.00;93589.09;5042109;28;19966;-73
2023/11/04 12:09:05;;;;;;;;;;;;;;;7.97;100.00;93556.72;5041755;28;20141;-73
2023/11/04 12:11:31;;;;;;;;;;;;;;;7.99;100.00;93554.63;5025147;28;19968;-73
2023/11/04 12:13:58;;;;;;;;;;;;;;;8.02;100.00;93541.03;5042398;28;19945;-73
2023/11/04 12:16:28;;;;;;;;;;;;;;;8.05;100.00;93534.50;5041910;28;20144;-73
2023/11/04 12:18:54;;;;;;;;;;;;;;;8.06;100.00;93512.53;5072002;28;19959;-73
2023/11/04 12:21:20;;;;;;;;;;;;;;;8.07;100.00;93501.84;5083650;28;19958;-73
2023/11/04 12:23:46;;;;;;;;;;;;;;;8.06;100.00;93478.63;5083943;28;19964;-72
2023/11/04 12:26:13;;;;;;;;;;;;;;;8.03;100.00;93466.91;5083687;28;20215;-78
2023/11/04 12:28:39;;;;;;;;;;;;;;;8.03;100.00;93495.59;5082467;28;19966;-79
2023/11/04 12:31:05;;;;;;;;;;;;;;;7.99;100.00;93499.81;5082461;28;19974;-80
2023/11/04 12:33:32;;;;;;;;;;;;;;;7.99;100.00;93483.41;5083974;28;20192;-79
2023/11/04 12:35:58;;;;;;;;;;;;;;;7.97;100.00;93469.84;5082292;28;19966;-79
2023/11/04 12:38:24;;;;;;;;;;;;;;;7.99;100.00;93489.38;5082638;28;19963;-80
2023/11/04 12:40:51;;;;;;;;;;;;;;;7.99;100.00;93468.50;5082555;28;19958;-79
2023/11/04 12:43:17;;;;;;;;;;;;;;;7.99;100.00;93455.47;5083045;28;19991;-75
2023/11/04 12:45:46;;;;;;;;;;;;;;;8.01;100.00;93466.41;5083600;28;19957;-74
2023/11/04 12:48:12;;;;;;;;;;;;;;;7.99;100.00;93465.91;5083995;28;20135;-72
2023/11/04 12:50:38;;;;;;;;;;;;;;;8.00;100.00;93479.72;5085980;28;19968;-72
2023/11/04 12:53:04;;;;;;;;;;;;;;;7.98;100.00;93468.78;5087329;28;19967;-73
2023/11/04 12:55:30;;;;;;;;;;;;;;;8.00;100.00;93483.13;5087288;28;19958;-72
2023/11/04 12:57:56;;;;;;;;;;;;;;;7.99;100.00;93462.53;5087416;28;19959;-72
2023/11/04 13:00:21;;;;;;;;;;;;;;;7.97;100.00;93441.13;5087387;28;19967;-71
2023/11/04 13:02:47;;;;;;;;;;;;;;;7.97;100.00;93456.78;5087392;28;20023;-72
2023/11/04 13:05:13;;;;;;;;;;;;;;;7.94;100.00;93473.78;5087344;28;19979;-73
2023/11/04 13:07:41;;;;;;;;;;;;;;;7.92;100.00;93476.66;5087401;28;19963;-73
2023/11/04 13:10:07;;;;;;;;;;;;;;;7.90;100.00;93499.63;5086770;28;19938;-73
2023/11/04 13:12:33;;;;;;;;;;;;;;;7.88;100.00;93480.09;5087509;28;20145;-72
2023/11/04 13:14:59;;;;;;;;;;;;;;;7.82;100.00;93479.34;5087403;28;20018;-73
2023/11/04 13:17:25;;;;;;;;;;;;;;;7.77;100.00;93468.97;5086772;28;19958;-74
2023/11/04 13:19:51;;;;;;;;;;;;;;;7.72;100.00;93474.22;5086758;28;19959;-70
2023/11/04 13:22:17;;;;;;;;;;;;;;;7.66;100.00;93467.47;5085924;28;19973;-73
2023/11/04 13:24:43;;;;;;;;;;;;;;;7.63;100.00;93428.91;5085685;28;19958;-72
2023/11/04 13:27:08;;;;;;;;;;;;;;;7.60;100.00;93421.63;5087080;28;20033;-73
2023/11/04 13:29:34;;;;;;;;;;;;;;;7.56;100.00;93418.78;5086668;28;19960;-73